Time;durP1;ratioP1;P1;durP2;ratioP2;P2;SDS_P1;SDS_P2;PMS_P1;PMS_P2;Temp;Humidity;BMP_temperature;BMP_pressure;BME280_temperature;BME280_humidity;BME280_pressure;Samples;Min_cycle;Max_cycle;Signal;HPM_P1;HPM_P2
2022/04/04 00:09:46;;;;;;;22.30;12.80;;;;;;;-1.13;99.79;100990.13;20949554;28;20049;-69
2022/04/04 00:19:48;;;;;;;25.37;13.50;;;;;;;-1.20;100.00;100990.69;20949442;28;20053;-69
2022/04/04 00:29:50;;;;;;;22.65;12.60;;;;;;;-1.28;100.00;100982.69;20949342;28;20562;-69
2022/04/04 00:39:52;;;;;;;23.52;12.80;;;;;;;-1.35;100.00;100981.53;20947912;28;20048;-69
2022/04/04 00:49:53;;;;;;;23.45;12.77;;;;;;;-1.36;100.00;100979.78;20949035;28;20045;-69
2022/04/04 00:59:55;;;;;;;22.85;11.68;;;;;;;-1.37;100.00;100974.59;20948057;28;20499;-69
2022/04/04 01:09:56;;;;;;;23.92;13.73;;;;;;;-1.36;100.00;100959.22;20946043;28;20041;-70
2022/04/04 01:19:58;;;;;;;21.90;12.65;;;;;;;-1.36;100.00;100948.97;20945751;28;20045;-69
2022/04/04 01:30:01;;;;;;;24.20;12.27;;;;;;;-1.40;100.00;100936.81;20943981;28;20045;-68
2022/04/04 01:40:06;;;;;;;23.10;11.68;;;;;;;-1.43;100.00;100936.69;20942710;28;20061;-69
2022/04/04 01:50:08;;;;;;;21.88;11.65;;;;;;;-1.49;100.00;100936.41;20939632;28;20500;-70
2022/04/04 02:00:11;;;;;;;21.25;11.13;;;;;;;-1.50;100.00;100919.25;20940133;28;20049;-69
2022/04/04 02:10:12;;;;;;;22.90;11.75;;;;;;;-1.49;100.00;100908.19;20941640;28;20048;-69
2022/04/04 02:20:14;;;;;;;19.88;10.52;;;;;;;-1.51;100.00;100912.38;20941330;28;20048;-70
2022/04/04 02:30:15;;;;;;;20.98;11.05;;;;;;;-1.57;99.93;100909.56;20938734;28;20052;-70
2022/04/04 02:40:17;;;;;;;22.73;12.00;;;;;;;-1.57;100.00;100917.28;20939674;28;20072;-69
2022/04/04 02:50:19;;;;;;;20.48;10.65;;;;;;;-1.67;100.00;100913.44;20941156;28;20055;-70
2022/04/04 03:00:23;;;;;;;20.90;11.77;;;;;;;-1.74;100.00;100908.00;20939496;28;20056;-70
2022/04/04 03:10:25;;;;;;;19.15;10.80;;;;;;;-1.74;100.00;100902.84;20940498;28;20052;-70
2022/04/04 03:20:30;;;;;;;21.03;10.53;;;;;;;-1.76;100.00;100891.66;20940025;28;20075;-70
2022/04/04 03:30:32;;;;;;;20.27;11.40;;;;;;;-1.82;100.00;100890.59;20933409;28;20169;-70
2022/04/04 03:40:33;;;;;;;18.23;10.68;;;;;;;-1.87;100.00;100875.78;20939958;28;20049;-69
2022/04/04 03:50:36;;;;;;;20.17;11.55;;;;;;;-1.87;100.00;100879.25;20951764;28;20053;-69
2022/04/04 04:00:39;;;;;;;20.60;11.73;;;;;;;-1.93;100.00;100878.97;20951354;28;20049;-70
2022/04/04 04:10:40;;;;;;;22.92;13.13;;;;;;;-1.91;100.00;100869.66;20950045;28;20041;-69
2022/04/04 04:20:42;;;;;;;26.40;14.23;;;;;;;-1.94;100.00;100869.53;20951257;28;20420;-69
2022/04/04 04:30:43;;;;;;;27.65;14.90;;;;;;;-2.01;100.00;100866.63;20938207;28;20052;-69
2022/04/04 04:40:45;;;;;;;25.27;14.32;;;;;;;-2.11;100.00;100863.69;20944868;28;20060;-69
2022/04/04 04:50:47;;;;;;;27.95;15.40;;;;;;;-2.14;100.00;100839.59;20948128;28;21031;-69
2022/04/04 05:00:49;;;;;;;33.65;16.50;;;;;;;-2.16;100.00;100847.22;20942739;28;20041;-69
2022/04/04 05:10:52;;;;;;;29.67;17.52;;;;;;;-2.12;100.00;100848.22;20947702;28;20552;-70
2022/04/04 05:20:53;;;;;;;31.95;17.33;;;;;;;-2.04;100.00;100851.13;20946304;28;20053;-70
2022/04/04 05:30:56;;;;;;;33.13;18.05;;;;;;;-1.93;100.00;100855.88;20944930;28;20056;-69
2022/04/04 05:40:58;;;;;;;32.17;17.35;;;;;;;-1.74;100.00;100841.25;20939952;28;20045;-69
2022/04/04 05:51:00;;;;;;;30.13;16.15;;;;;;;-1.51;100.00;100845.63;20940890;28;20509;-69
2022/04/04 06:01:05;;;;;;;29.10;14.48;;;;;;;-1.17;100.00;100840.09;20940440;28;20748;-69
2022/04/04 06:11:06;;;;;;;24.58;12.93;;;;;;;-0.78;99.81;100838.16;20936795;28;20045;-69
2022/04/04 06:21:08;;;;;;;25.15;13.27;;;;;;;-0.42;98.80;100831.75;20939398;28;20126;-69
2022/04/04 06:31:10;;;;;;;22.60;11.98;;;;;;;-0.01;97.10;100840.88;20939275;28;20047;-69
2022/04/04 06:41:12;;;;;;;24.15;12.25;;;;;;;0.31;94.45;100835.94;20882563;28;20044;-69
2022/04/04 06:51:13;;;;;;;21.85;12.30;;;;;;;0.58;92.05;100818.78;20859443;28;20046;-69
2022/04/04 07:01:15;;;;;;;23.35;12.98;;;;;;;1.00;89.29;100815.75;20858063;28;20048;-69
2022/04/04 07:11:16;;;;;;;21.75;11.30;;;;;;;1.50;86.13;100813.75;20913212;28;20041;-69
2022/04/04 07:21:18;;;;;;;20.27;9.90;;;;;;;1.68;80.04;100810.81;20945246;28;20048;-68
2022/04/04 07:31:19;;;;;;;17.25;9.93;;;;;;;1.75;75.93;100798.06;20942992;28;20056;-69
2022/04/04 07:41:21;;;;;;;18.25;9.10;;;;;;;1.76;73.19;100792.06;20948750;28;20049;-69
2022/04/04 07:51:23;;;;;;;15.65;8.52;;;;;;;1.84;72.18;100775.94;20941763;28;20065;-69
2022/04/04 08:01:24;;;;;;;18.25;9.27;;;;;;;2.18;73.33;100767.28;20941188;28;20190;-69
2022/04/04 08:11:27;;;;;;;15.77;9.43;;;;;;;2.58;70.29;100761.34;20939184;28;20052;-68
2022/04/04 08:21:31;;;;;;;15.68;8.48;;;;;;;2.67;69.33;100753.78;20928933;28;20533;-68
2022/04/04 08:31:34;;;;;;;;;;;;;;;3.09;68.64;100732.25;20941030;28;20044;-66
2022/04/04 08:41:37;;;;;;;15.18;7.63;;;;;;;3.46;63.77;100728.66;20941616;28;19925;-67
2022/04/04 08:51:40;;;;;;;13.68;7.85;;;;;;;3.51;62.18;100706.31;20938890;28;20059;-66
2022/04/04 09:01:41;;;;;;;15.35;8.05;;;;;;;4.02;61.27;100694.19;20922841;28;20053;-66
2022/04/04 09:11:50;;;;;;;13.05;8.02;;;;;;;4.06;60.55;100680.44;20933092;28;20123;-65
2022/04/04 09:21:52;;;;;;;13.52;7.45;;;;;;;4.83;58.27;100657.28;20940116;28;20041;-65
2022/04/04 09:32:05;;;;;;;18.42;9.98;;;;;;;4.98;55.88;100637.53;20915485;28;20573;-65
2022/04/04 09:42:18;;;;;;;13.75;7.38;;;;;;;5.56;55.70;100623.41;20933031;28;20084;-65
2022/04/04 09:52:20;;;;;;;12.85;7.35;;;;;;;5.68;55.51;100591.47;20922146;28;20140;-64
2022/04/04 10:02:22;;;;;;;13.93;7.85;;;;;;;5.95;53.83;100577.81;20934043;28;20044;-64
2022/04/04 10:12:23;;;;;;;12.32;6.93;;;;;;;6.32;51.09;100555.44;20933350;28;20468;-64
2022/04/04 10:22:26;;;;;;;12.38;7.22;;;;;;;6.73;48.46;100528.72;20934007;28;20044;-65
2022/04/04 10:32:28;;;;;;;12.30;7.13;;;;;;;6.90;45.94;100513.13;20924340;28;20048;-64
2022/04/04 10:42:41;;;;;;;10.90;6.22;;;;;;;6.59;44.56;100483.59;20933812;28;20412;-64
2022/04/04 10:52:49;;;;;;;9.95;6.88;;;;;;;7.30;45.08;100459.31;20935911;28;20139;-64
2022/04/04 11:02:52;;;;;;;11.88;7.30;;;;;;;7.86;43.89;100433.97;20946167;28;20045;-64
2022/04/04 11:13:04;;;;;;;11.63;7.10;;;;;;;7.31;44.04;100444.53;20931717;28;20049;-64
2022/04/04 11:23:11;;;;;;;11.70;7.10;;;;;;;7.46;44.63;100411.50;20944670;28;20045;-65
2022/04/04 11:33:22;;;;;;;10.98;5.53;;;;;;;7.95;40.00;100374.84;20944616;28;20063;-65
2022/04/04 11:43:27;;;;;;;8.23;5.43;;;;;;;8.17;39.87;100351.22;20945560;28;20059;-65
2022/04/04 11:53:35;;;;;;;9.80;4.63;;;;;;;8.12;37.69;100333.00;20946597;28;20071;-66
2022/04/04 12:03:43;;;;;;;6.80;4.13;;;;;;;8.32;37.16;100298.94;20935291;28;20049;-67
2022/04/04 12:13:52;;;;;;;11.80;5.60;;;;;;;8.59;35.56;100307.44;20942921;28;20490;-66
2022/04/04 12:34:14;;;;;;;9.27;6.20;;;;;;;8.09;37.69;100280.00;20935513;28;20554;-67
2022/04/04 12:44:21;;;;;;;13.95;6.80;;;;;;;8.39;37.85;100277.19;20941009;28;20286;-67
2022/04/04 12:54:27;;;;;;;10.60;6.55;;;;;;;8.23;38.13;100249.44;20940459;28;20545;-66
2022/04/04 13:04:30;;;;;;;12.27;6.88;;;;;;;8.67;39.47;100227.31;20939378;28;20509;-66
2022/04/04 13:14:47;;;;;;;11.10;6.68;;;;;;;8.78;39.76;100196.75;20937882;28;20052;-65
2022/04/04 13:24:48;;;;;;;11.48;6.80;;;;;;;9.40;39.28;100189.84;20931461;28;20409;-66
2022/04/04 13:34:50;;;;;;;14.90;7.30;;;;;;;9.39;39.03;100182.91;20939246;28;20410;-66
2022/04/04 13:44:52;;;;;;;10.25;6.70;;;;;;;9.48;38.26;100169.69;20935883;28;20056;-66
2022/04/04 13:54:53;;;;;;;9.68;6.28;;;;;;;9.24;39.40;100159.59;20931041;28;20056;-66
2022/04/04 14:04:55;;;;;;;10.20;6.30;;;;;;;9.05;38.83;100134.59;20934625;28;20486;-66
2022/04/04 14:14:58;;;;;;;8.75;6.50;;;;;;;9.37;36.95;100132.41;20933473;28;20064;-65
2022/04/04 14:25:00;;;;;;;9.88;7.07;;;;;;;9.44;37.79;100113.16;20929344;28;20052;-66
2022/04/04 14:35:02;;;;;;;10.32;6.47;;;;;;;9.35;36.95;100099.34;20929440;28;20045;-65
2022/04/04 14:45:05;;;;;;;9.48;5.68;;;;;;;9.43;37.58;100100.09;20929734;28;20774;-66
2022/04/04 14:55:08;;;;;;;10.10;6.45;;;;;;;9.64;38.41;100072.75;20929574;28;20084;-65
2022/04/04 15:05:10;;;;;;;11.13;5.95;;;;;;;9.86;37.47;100063.63;20929628;28;20040;-65
2022/04/04 15:15:12;;;;;;;9.00;5.53;;;;;;;9.73;37.52;100062.13;20931206;28;20208;-65
2022/04/04 15:25:13;;;;;;;8.77;5.88;;;;;;;9.66;37.60;100047.44;20931113;28;20041;-65
2022/04/04 15:35:15;;;;;;;9.02;5.85;;;;;;;9.33;37.39;100047.09;20931623;28;20094;-66
2022/04/04 15:45:23;;;;;;;8.93;5.20;;;;;;;9.20;37.49;100030.78;20944375;28;20136;-66
2022/04/04 15:55:25;;;;;;;8.38;5.28;;;;;;;9.25;37.53;100013.28;20938750;28;20527;-66
2022/04/04 16:05:26;;;;;;;9.15;5.70;;;;;;;9.23;38.23;100008.97;20944521;28;20048;-66
2022/04/04 16:15:28;;;;;;;11.77;5.07;;;;;;;9.17;38.53;100006.47;20943467;28;20049;-66
2022/04/04 16:25:30;;;;;;;10.98;5.88;;;;;;;9.03;39.08;100021.50;20915717;28;20044;-66
2022/04/04 16:35:32;;;;;;;8.70;5.57;;;;;;;8.83;40.52;100006.13;20881595;28;20049;-66
2022/04/04 16:45:33;;;;;;;10.25;5.50;;;;;;;8.66;41.38;100020.25;20882605;28;20098;-66
2022/04/04 16:55:37;;;;;;;8.65;5.65;;;;;;;8.63;41.15;100041.22;20879247;28;20060;-66
2022/04/04 17:05:40;;;;;;;11.27;6.22;;;;;;;8.48;44.02;100033.59;20877475;28;20048;-65
2022/04/04 17:15:42;;;;;;;12.27;6.82;;;;;;;8.03;49.61;100045.38;20876457;28;20060;-65
2022/04/04 17:25:44;;;;;;;11.68;6.78;;;;;;;7.76;51.18;100052.63;20878730;28;20052;-65
2022/04/04 17:35:45;;;;;;;10.07;6.68;;;;;;;7.82;50.32;100044.75;20877317;28;20060;-66
2022/04/04 17:45:47;;;;;;;13.85;7.45;;;;;;;7.77;49.85;100033.50;20882126;28;20581;-66
2022/04/04 17:55:49;;;;;;;10.70;7.18;;;;;;;7.77;50.48;100027.44;20875661;28;20139;-66
2022/04/04 18:05:51;;;;;;;9.65;6.72;;;;;;;7.82;49.23;100026.50;20877163;28;20522;-65
2022/04/04 18:15:52;;;;;;;10.40;6.15;;;;;;;7.82;48.52;100036.94;20877240;28;20067;-66
2022/04/04 18:25:54;;;;;;;12.35;7.00;;;;;;;7.84;48.70;100029.94;20870222;28;20057;-65
2022/04/04 18:35:56;;;;;;;13.77;7.53;;;;;;;7.78;48.74;100030.00;20876480;28;20048;-65
2022/04/04 18:45:58;;;;;;;13.40;7.03;;;;;;;7.70;50.12;100034.44;20875727;28;20052;-65
2022/04/04 18:56:00;;;;;;;11.68;6.95;;;;;;;7.76;49.36;100050.03;20874685;28;20048;-65
2022/04/04 19:06:03;;;;;;;13.07;7.57;;;;;;;7.66;50.33;100056.19;20874498;28;20044;-65
2022/04/04 19:16:07;;;;;;;13.43;7.10;;;;;;;7.56;52.14;100049.34;20885515;28;20151;-66
2022/04/04 19:26:09;;;;;;;;;;;;;;;7.49;52.38;100084.16;20892310;28;20041;-66
2022/04/04 19:36:12;;;;;;;10.50;6.53;;;;;;;7.33;54.02;100063.44;20889031;28;19927;-65
2022/04/04 19:46:13;;;;;;;12.15;6.95;;;;;;;7.27;54.53;100073.88;20888995;28;20049;-65
2022/04/04 19:56:15;;;;;;;13.35;7.32;;;;;;;7.27;54.90;100089.50;20885744;28;20426;-66
2022/04/04 20:06:17;;;;;;;12.95;7.38;;;;;;;7.33;54.98;100070.34;20884105;28;20048;-65
2022/04/04 20:16:19;;;;;;;10.93;6.78;;;;;;;7.20;55.63;100067.88;20887101;28;20061;-66
2022/04/04 20:26:22;;;;;;;11.10;6.80;;;;;;;7.15;56.90;100068.78;20886022;28;20041;-66
2022/04/04 20:36:24;;;;;;;12.32;7.10;;;;;;;7.05;58.42;100059.31;20884246;28;20080;-66
2022/04/04 20:46:25;;;;;;;12.13;7.35;;;;;;;7.06;58.43;100055.81;20885922;28;20076;-66
2022/04/04 20:56:27;;;;;;;14.27;8.00;;;;;;;7.07;57.85;100060.16;20907816;28;20660;-67
2022/04/04 21:06:28;;;;;;;11.27;6.32;;;;;;;6.99;58.62;100054.13;20939698;28;20044;-66
2022/04/04 21:16:32;;;;;;;11.68;6.72;;;;;;;6.91;58.89;100022.97;20935339;28;20994;-65
2022/04/04 21:26:33;;;;;;;12.07;7.35;;;;;;;6.84;60.13;100008.25;20939144;28;20239;-66
2022/04/04 21:36:35;;;;;;;12.32;7.30;;;;;;;6.87;59.74;100016.91;20937529;28;20067;-67
2022/04/04 21:46:36;;;;;;;11.93;6.80;;;;;;;6.88;59.73;100008.22;20936589;28;20048;-67
2022/04/04 21:56:38;;;;;;;12.30;6.93;;;;;;;6.89;59.17;100020.34;20935509;28;20087;-67
2022/04/04 22:06:39;;;;;;;11.75;6.93;;;;;;;6.88;59.32;100018.63;20938069;28;20052;-66
2022/04/04 22:16:41;;;;;;;11.05;6.78;;;;;;;6.98;58.25;100009.00;20942484;28;20178;-66
2022/04/04 22:26:42;;;;;;;12.32;7.10;;;;;;;7.02;58.33;99999.44;20941273;28;20049;-66
2022/04/04 22:36:44;;;;;;;13.57;6.97;;;;;;;7.03;57.98;99993.34;20939299;28;20138;-66
2022/04/04 22:46:45;;;;;;;10.77;7.00;;;;;;;7.08;58.80;100002.00;20939727;28;20095;-66
2022/04/04 22:56:49;;;;;;;12.05;7.03;;;;;;;7.06;58.59;100001.16;20940164;28;20061;-66
2022/04/04 23:06:50;;;;;;;12.52;7.15;;;;;;;7.02;58.93;99992.50;20938938;28;20094;-66
2022/04/04 23:16:52;;;;;;;13.57;7.65;;;;;;;7.05;59.24;99987.28;20938022;28;20052;-66
2022/04/04 23:27:00;;;;;;;13.00;6.82;;;;;;;7.06;59.27;99985.53;20934189;28;20655;-66
2022/04/04 23:37:01;;;;;;;11.25;6.95;;;;;;;7.07;59.91;99979.44;20936615;28;20059;-66
2022/04/04 23:47:20;;;;;;;14.25;7.28;;;;;;;7.07;60.32;99951.66;20933654;28;20048;-66
2022/04/04 23:57:22;;;;;;;11.45;7.50;;;;;;;6.98;61.16;99959.56;20938698;28;20052;-66
